sensor_id;sensor_type;location;lat;lon;timestamp;temperature;humidity
12289;DHT22;6207;49.308;7.336;2023-04-07T00:01:24;6.40;99.90
12289;DHT22;6207;49.308;7.336;2023-04-07T00:03:51;6.40;99.90
12289;DHT22;6207;49.308;7.336;2023-04-07T00:06:18;6.40;99.90
12289;DHT22;6207;49.308;7.336;2023-04-07T00:08:44;6.20;99.90
12289;DHT22;6207;49.308;7.336;2023-04-07T00:11:12;6.10;99.90
12289;DHT22;6207;49.308;7.336;2023-04-07T00:13:38;6.00;99.90
12289;DHT22;6207;49.308;7.336;2023-04-07T00:16:05;6.00;99.90
12289;DHT22;6207;49.308;7.336;2023-04-07T00:18:32;5.90;99.90
12289;DHT22;6207;49.308;7.336;2023-04-07T00:20:59;5.90;99.90
12289;DHT22;6207;49.308;7.336;2023-04-07T00:23:26;5.90;99.90
12289;DHT22;6207;49.308;7.336;2023-04-07T00:25:53;5.90;99.90
12289;DHT22;6207;49.308;7.336;2023-04-07T00:28:20;6.00;99.90
12289;DHT22;6207;49.308;7.336;2023-04-07T00:30:46;6.00;99.90
12289;DHT22;6207;49.308;7.336;2023-04-07T00:33:13;6.00;99.90
12289;DHT22;6207;49.308;7.336;2023-04-07T00:35:40;6.00;99.90
12289;DHT22;6207;49.308;7.336;2023-04-07T00:38:06;6.00;99.90
12289;DHT22;6207;49.308;7.336;2023-04-07T00:40:33;6.00;99.90
12289;DHT22;6207;49.308;7.336;2023-04-07T00:43:00;6.00;99.90
12289;DHT22;6207;49.308;7.336;2023-04-07T00:45:27;6.00;99.90
12289;DHT22;6207;49.308;7.336;2023-04-07T00:47:56;6.00;99.90
12289;DHT22;6207;49.308;7.336;2023-04-07T00:50:23;6.00;99.90
12289;DHT22;6207;49.308;7.336;2023-04-07T00:52:50;6.00;99.90
12289;DHT22;6207;49.308;7.336;2023-04-07T00:55:17;5.90;99.90
12289;DHT22;6207;49.308;7.336;2023-04-07T00:57:44;6.00;99.90
12289;DHT22;6207;49.308;7.336;2023-04-07T01:00:12;6.00;99.90
12289;DHT22;6207;49.308;7.336;2023-04-07T01:02:51;6.00;99.90
12289;DHT22;6207;49.308;7.336;2023-04-07T01:05:41;5.90;99.90
12289;DHT22;6207;49.308;7.336;2023-04-07T01:08:16;5.90;99.90
12289;DHT22;6207;49.308;7.336;2023-04-07T01:13:48;5.90;99.90
12289;DHT22;6207;49.308;7.336;2023-04-07T01:16:38;5.90;99.90
12289;DHT22;6207;49.308;7.336;2023-04-07T01:21:55;5.90;99.90
12289;DHT22;6207;49.308;7.336;2023-04-07T01:30:11;5.70;99.90
12289;DHT22;6207;49.308;7.336;2023-04-07T01:32:39;5.60;99.90
12289;DHT22;6207;49.308;7.336;2023-04-07T01:35:11;5.50;99.90
12289;DHT22;6207;49.308;7.336;2023-04-07T01:37:39;5.50;99.90
12289;DHT22;6207;49.308;7.336;2023-04-07T01:40:07;5.30;99.90
12289;DHT22;6207;49.308;7.336;2023-04-07T01:42:35;5.30;99.90
12289;DHT22;6207;49.308;7.336;2023-04-07T01:45:03;5.20;99.90
12289;DHT22;6207;49.308;7.336;2023-04-07T01:47:31;5.00;99.90
12289;DHT22;6207;49.308;7.336;2023-04-07T01:50:00;5.00;99.90
12289;DHT22;6207;49.308;7.336;2023-04-07T01:52:34;4.90;99.90
12289;DHT22;6207;49.308;7.336;2023-04-07T01:55:04;4.90;99.90
12289;DHT22;6207;49.308;7.336;2023-04-07T01:57:32;4.80;99.90
12289;DHT22;6207;49.308;7.336;2023-04-07T01:59:58;4.80;99.90
12289;DHT22;6207;49.308;7.336;2023-04-07T02:02:26;4.80;99.90
12289;DHT22;6207;49.308;7.336;2023-04-07T02:05:04;4.70;99.90
12289;DHT22;6207;49.308;7.336;2023-04-07T02:07:42;4.70;99.90
12289;DHT22;6207;49.308;7.336;2023-04-07T02:10:14;4.70;99.90
12289;DHT22;6207;49.308;7.336;2023-04-07T02:12:43;4.70;99.90
12289;DHT22;6207;49.308;7.336;2023-04-07T02:15:12;4.70;99.90
12289;DHT22;6207;49.308;7.336;2023-04-07T02:17:41;4.50;99.90
12289;DHT22;6207;49.308;7.336;2023-04-07T02:20:10;4.30;99.90
12289;DHT22;6207;49.308;7.336;2023-04-07T02:22:40;4.30;99.90
12289;DHT22;6207;49.308;7.336;2023-04-07T02:25:28;4.40;99.90
12289;DHT22;6207;49.308;7.336;2023-04-07T02:27:57;4.40;99.90
12289;DHT22;6207;49.308;7.336;2023-04-07T02:30:25;4.30;99.90
12289;DHT22;6207;49.308;7.336;2023-04-07T02:32:53;4.20;99.90
12289;DHT22;6207;49.308;7.336;2023-04-07T02:35:20;4.20;99.90
12289;DHT22;6207;49.308;7.336;2023-04-07T02:37:47;4.10;99.90
12289;DHT22;6207;49.308;7.336;2023-04-07T02:40:14;3.90;99.90
12289;DHT22;6207;49.308;7.336;2023-04-07T02:42:41;3.80;99.90
12289;DHT22;6207;49.308;7.336;2023-04-07T02:45:09;3.90;99.90
12289;DHT22;6207;49.308;7.336;2023-04-07T02:47:37;3.90;99.90
12289;DHT22;6207;49.308;7.336;2023-04-07T02:50:04;3.90;99.90
12289;DHT22;6207;49.308;7.336;2023-04-07T02:52:31;4.00;99.90
12289;DHT22;6207;49.308;7.336;2023-04-07T02:54:58;3.90;99.90
12289;DHT22;6207;49.308;7.336;2023-04-07T02:57:24;4.10;99.90
12289;DHT22;6207;49.308;7.336;2023-04-07T02:59:51;4.10;99.90
12289;DHT22;6207;49.308;7.336;2023-04-07T03:02:20;4.00;99.90
12289;DHT22;6207;49.308;7.336;2023-04-07T03:04:49;3.80;99.90
12289;DHT22;6207;49.308;7.336;2023-04-07T03:07:16;3.60;99.90
12289;DHT22;6207;49.308;7.336;2023-04-07T03:09:42;3.40;99.90
12289;DHT22;6207;49.308;7.336;2023-04-07T03:12:09;3.40;99.90
12289;DHT22;6207;49.308;7.336;2023-04-07T03:14:36;3.50;99.90
12289;DHT22;6207;49.308;7.336;2023-04-07T03:17:04;3.60;99.90
12289;DHT22;6207;49.308;7.336;2023-04-07T03:19:31;3.30;99.90
12289;DHT22;6207;49.308;7.336;2023-04-07T03:21:58;3.20;99.90
12289;DHT22;6207;49.308;7.336;2023-04-07T03:24:25;3.20;99.90
12289;DHT22;6207;49.308;7.336;2023-04-07T03:26:53;3.00;99.90
12289;DHT22;6207;49.308;7.336;2023-04-07T03:29:20;3.10;99.90
12289;DHT22;6207;49.308;7.336;2023-04-07T03:31:47;3.10;99.90
12289;DHT22;6207;49.308;7.336;2023-04-07T03:34:14;3.20;99.90
12289;DHT22;6207;49.308;7.336;2023-04-07T03:36:41;3.40;99.90
12289;DHT22;6207;49.308;7.336;2023-04-07T03:39:08;3.40;99.90
12289;DHT22;6207;49.308;7.336;2023-04-07T03:41:35;3.50;99.90
12289;DHT22;6207;49.308;7.336;2023-04-07T03:44:01;3.50;99.90
12289;DHT22;6207;49.308;7.336;2023-04-07T03:46:28;3.60;99.90
12289;DHT22;6207;49.308;7.336;2023-04-07T03:48:55;3.60;99.90
12289;DHT22;6207;49.308;7.336;2023-04-07T03:51:21;3.70;99.90
12289;DHT22;6207;49.308;7.336;2023-04-07T03:53:48;3.80;99.90
12289;DHT22;6207;49.308;7.336;2023-04-07T03:56:15;3.80;99.90
12289;DHT22;6207;49.308;7.336;2023-04-07T03:58:42;3.80;99.90
12289;DHT22;6207;49.308;7.336;2023-04-07T04:01:09;3.90;99.90
12289;DHT22;6207;49.308;7.336;2023-04-07T04:03:36;3.80;99.90
12289;DHT22;6207;49.308;7.336;2023-04-07T04:06:03;3.90;99.90
12289;DHT22;6207;49.308;7.336;2023-04-07T04:08:31;4.00;99.90
12289;DHT22;6207;49.308;7.336;2023-04-07T04:10:58;4.10;99.90
12289;DHT22;6207;49.308;7.336;2023-04-07T04:13:25;4.10;99.90
12289;DHT22;6207;49.308;7.336;2023-04-07T04:15:52;4.10;99.90
12289;DHT22;6207;49.308;7.336;2023-04-07T04:18:18;4.20;99.90
12289;DHT22;6207;49.308;7.336;2023-04-07T04:20:45;4.20;99.90
12289;DHT22;6207;49.308;7.336;2023-04-07T04:23:14;4.20;99.90
12289;DHT22;6207;49.308;7.336;2023-04-07T04:25:40;4.20;99.90
12289;DHT22;6207;49.308;7.336;2023-04-07T04:28:07;4.20;99.90
12289;DHT22;6207;49.308;7.336;2023-04-07T04:30:34;4.30;99.90
12289;DHT22;6207;49.308;7.336;2023-04-07T04:33:01;4.30;99.90
12289;DHT22;6207;49.308;7.336;2023-04-07T04:35:28;4.30;99.90
12289;DHT22;6207;49.308;7.336;2023-04-07T04:37:55;4.10;99.90
12289;DHT22;6207;49.308;7.336;2023-04-07T04:40:22;4.30;99.90
12289;DHT22;6207;49.308;7.336;2023-04-07T04:42:49;4.20;99.90
12289;DHT22;6207;49.308;7.336;2023-04-07T04:45:16;4.10;99.90
12289;DHT22;6207;49.308;7.336;2023-04-07T04:47:42;4.00;99.90
12289;DHT22;6207;49.308;7.336;2023-04-07T04:50:09;3.90;99.90
12289;DHT22;6207;49.308;7.336;2023-04-07T04:52:36;3.80;99.90
12289;DHT22;6207;49.308;7.336;2023-04-07T04:55:05;3.70;99.90
12289;DHT22;6207;49.308;7.336;2023-04-07T04:57:32;3.60;99.90
12289;DHT22;6207;49.308;7.336;2023-04-07T05:00:02;3.40;99.90
12289;DHT22;6207;49.308;7.336;2023-04-07T05:02:29;3.40;99.90
12289;DHT22;6207;49.308;7.336;2023-04-07T05:04:57;3.40;99.90
12289;DHT22;6207;49.308;7.336;2023-04-07T05:07:24;3.30;99.90
12289;DHT22;6207;49.308;7.336;2023-04-07T05:09:50;3.30;99.90
12289;DHT22;6207;49.308;7.336;2023-04-07T05:12:17;3.30;99.90
12289;DHT22;6207;49.308;7.336;2023-04-07T05:14:44;3.30;99.90
12289;DHT22;6207;49.308;7.336;2023-04-07T05:17:11;3.30;99.90
12289;DHT22;6207;49.308;7.336;2023-04-07T05:19:37;3.20;99.90
12289;DHT22;6207;49.308;7.336;2023-04-07T05:22:04;3.20;99.90
12289;DHT22;6207;49.308;7.336;2023-04-07T05:24:31;3.30;99.90
12289;DHT22;6207;49.308;7.336;2023-04-07T05:26:58;3.30;99.90
12289;DHT22;6207;49.308;7.336;2023-04-07T05:29:24;3.30;99.90
12289;DHT22;6207;49.308;7.336;2023-04-07T05:31:52;3.30;99.90
12289;DHT22;6207;49.308;7.336;2023-04-07T05:34:19;3.30;99.90
12289;DHT22;6207;49.308;7.336;2023-04-07T05:36:46;3.30;99.90
12289;DHT22;6207;49.308;7.336;2023-04-07T05:39:13;3.20;99.90
12289;DHT22;6207;49.308;7.336;2023-04-07T05:41:39;3.20;99.90
12289;DHT22;6207;49.308;7.336;2023-04-07T05:44:06;3.40;99.90
12289;DHT22;6207;49.308;7.336;2023-04-07T05:46:33;3.50;99.90
12289;DHT22;6207;49.308;7.336;2023-04-07T05:49:00;3.50;99.90
12289;DHT22;6207;49.308;7.336;2023-04-07T05:51:45;3.60;99.90
12289;DHT22;6207;49.308;7.336;2023-04-07T05:54:14;3.70;99.90
12289;DHT22;6207;49.308;7.336;2023-04-07T05:56:41;3.80;99.90
12289;DHT22;6207;49.308;7.336;2023-04-07T05:59:08;3.80;99.90
12289;DHT22;6207;49.308;7.336;2023-04-07T06:01:35;3.90;99.90
12289;DHT22;6207;49.308;7.336;2023-04-07T06:04:02;4.10;99.90
12289;DHT22;6207;49.308;7.336;2023-04-07T06:06:29;4.20;99.90
12289;DHT22;6207;49.308;7.336;2023-04-07T06:08:56;4.40;99.90
12289;DHT22;6207;49.308;7.336;2023-04-07T06:11:24;4.40;99.90
12289;DHT22;6207;49.308;7.336;2023-04-07T06:13:50;4.80;99.90
12289;DHT22;6207;49.308;7.336;2023-04-07T06:16:17;5.40;99.90
12289;DHT22;6207;49.308;7.336;2023-04-07T06:18:45;6.60;99.90
12289;DHT22;6207;49.308;7.336;2023-04-07T06:21:12;7.90;99.90
12289;DHT22;6207;49.308;7.336;2023-04-07T06:23:38;7.90;99.90
12289;DHT22;6207;49.308;7.336;2023-04-07T06:26:08;7.50;99.90
12289;DHT22;6207;49.308;7.336;2023-04-07T06:28:36;7.40;99.90
12289;DHT22;6207;49.308;7.336;2023-04-07T06:31:03;7.20;99.90
12289;DHT22;6207;49.308;7.336;2023-04-07T06:33:29;7.00;99.90
12289;DHT22;6207;49.308;7.336;2023-04-07T06:35:56;7.00;99.90
12289;DHT22;6207;49.308;7.336;2023-04-07T06:38:23;7.00;99.90
12289;DHT22;6207;49.308;7.336;2023-04-07T06:40:50;6.90;99.90
12289;DHT22;6207;49.308;7.336;2023-04-07T06:43:17;6.90;99.90
12289;DHT22;6207;49.308;7.336;2023-04-07T06:45:44;6.90;99.90
12289;DHT22;6207;49.308;7.336;2023-04-07T06:48:11;6.80;99.90
12289;DHT22;6207;49.308;7.336;2023-04-07T06:50:38;6.60;99.90
12289;DHT22;6207;49.308;7.336;2023-04-07T06:53:04;6.60;99.90
12289;DHT22;6207;49.308;7.336;2023-04-07T06:55:31;6.60;99.90
12289;DHT22;6207;49.308;7.336;2023-04-07T06:57:58;6.60;99.90
12289;DHT22;6207;49.308;7.336;2023-04-07T07:00:25;6.60;99.90
12289;DHT22;6207;49.308;7.336;2023-04-07T07:02:52;6.70;99.90
12289;DHT22;6207;49.308;7.336;2023-04-07T07:05:19;6.70;99.90
12289;DHT22;6207;49.308;7.336;2023-04-07T07:07:46;6.70;99.90
12289;DHT22;6207;49.308;7.336;2023-04-07T07:10:12;6.80;99.90
12289;DHT22;6207;49.308;7.336;2023-04-07T07:12:39;6.80;99.90
12289;DHT22;6207;49.308;7.336;2023-04-07T07:15:06;6.60;99.90
12289;DHT22;6207;49.308;7.336;2023-04-07T07:17:33;6.70;99.90
12289;DHT22;6207;49.308;7.336;2023-04-07T07:20:00;6.80;99.90
12289;DHT22;6207;49.308;7.336;2023-04-07T07:22:27;6.90;99.90
12289;DHT22;6207;49.308;7.336;2023-04-07T07:24:54;6.90;99.90
12289;DHT22;6207;49.308;7.336;2023-04-07T07:27:21;7.00;99.90
12289;DHT22;6207;49.308;7.336;2023-04-07T07:29:47;7.10;99.90
12289;DHT22;6207;49.308;7.336;2023-04-07T07:32:14;7.00;99.90
12289;DHT22;6207;49.308;7.336;2023-04-07T07:34:41;7.00;99.90
12289;DHT22;6207;49.308;7.336;2023-04-07T07:37:07;6.90;99.90
12289;DHT22;6207;49.308;7.336;2023-04-07T07:39:34;6.80;99.90
12289;DHT22;6207;49.308;7.336;2023-04-07T07:42:01;7.00;99.90
12289;DHT22;6207;49.308;7.336;2023-04-07T07:44:28;7.00;99.90
12289;DHT22;6207;49.308;7.336;2023-04-07T07:46:58;7.10;99.90
12289;DHT22;6207;49.308;7.336;2023-04-07T07:49:24;7.00;99.90
12289;DHT22;6207;49.308;7.336;2023-04-07T07:51:51;7.00;99.90
12289;DHT22;6207;49.308;7.336;2023-04-07T07:54:18;7.10;99.90
12289;DHT22;6207;49.308;7.336;2023-04-07T07:56:45;7.30;99.90
12289;DHT22;6207;49.308;7.336;2023-04-07T07:59:12;7.40;99.90
12289;DHT22;6207;49.308;7.336;2023-04-07T08:01:38;7.50;99.90
12289;DHT22;6207;49.308;7.336;2023-04-07T08:04:05;7.50;99.90
12289;DHT22;6207;49.308;7.336;2023-04-07T08:06:32;7.40;99.90
12289;DHT22;6207;49.308;7.336;2023-04-07T08:08:59;7.30;99.90
12289;DHT22;6207;49.308;7.336;2023-04-07T08:11:26;7.40;99.90
12289;DHT22;6207;49.308;7.336;2023-04-07T08:13:52;7.50;99.90
12289;DHT22;6207;49.308;7.336;2023-04-07T08:16:20;7.50;99.90
12289;DHT22;6207;49.308;7.336;2023-04-07T08:18:48;7.60;99.90
12289;DHT22;6207;49.308;7.336;2023-04-07T08:21:15;7.70;99.90
12289;DHT22;6207;49.308;7.336;2023-04-07T08:23:42;7.50;99.90
12289;DHT22;6207;49.308;7.336;2023-04-07T08:26:09;7.50;99.90
12289;DHT22;6207;49.308;7.336;2023-04-07T08:28:36;7.60;99.90
12289;DHT22;6207;49.308;7.336;2023-04-07T08:31:02;7.70;99.90
12289;DHT22;6207;49.308;7.336;2023-04-07T08:33:29;7.60;99.90
12289;DHT22;6207;49.308;7.336;2023-04-07T08:35:57;7.70;99.90
12289;DHT22;6207;49.308;7.336;2023-04-07T08:38:24;7.90;99.90
12289;DHT22;6207;49.308;7.336;2023-04-07T08:40:57;7.90;99.90
12289;DHT22;6207;49.308;7.336;2023-04-07T08:43:26;7.90;99.90
12289;DHT22;6207;49.308;7.336;2023-04-07T08:45:56;8.00;99.90
12289;DHT22;6207;49.308;7.336;2023-04-07T08:48:23;8.20;99.90
12289;DHT22;6207;49.308;7.336;2023-04-07T08:50:53;8.00;99.90
12289;DHT22;6207;49.308;7.336;2023-04-07T08:53:25;8.40;99.90
12289;DHT22;6207;49.308;7.336;2023-04-07T08:55:55;8.10;99.90
12289;DHT22;6207;49.308;7.336;2023-04-07T08:58:23;8.50;99.90
12289;DHT22;6207;49.308;7.336;2023-04-07T09:00:51;8.60;99.90
12289;DHT22;6207;49.308;7.336;2023-04-07T09:03:18;8.70;99.90
12289;DHT22;6207;49.308;7.336;2023-04-07T09:05:45;8.60;99.90
12289;DHT22;6207;49.308;7.336;2023-04-07T09:08:12;8.70;99.90
12289;DHT22;6207;49.308;7.336;2023-04-07T09:10:39;8.60;99.90
12289;DHT22;6207;49.308;7.336;2023-04-07T09:13:06;8.40;99.90
12289;DHT22;6207;49.308;7.336;2023-04-07T09:15:32;8.40;99.90
12289;DHT22;6207;49.308;7.336;2023-04-07T09:18:01;8.30;99.90
12289;DHT22;6207;49.308;7.336;2023-04-07T09:20:55;8.30;99.90
12289;DHT22;6207;49.308;7.336;2023-04-07T09:23:27;8.20;99.90
12289;DHT22;6207;49.308;7.336;2023-04-07T09:25:55;8.30;99.90
12289;DHT22;6207;49.308;7.336;2023-04-07T09:28:25;8.30;99.90
12289;DHT22;6207;49.308;7.336;2023-04-07T09:31:03;8.60;99.90
12289;DHT22;6207;49.308;7.336;2023-04-07T09:33:31;8.60;99.90
12289;DHT22;6207;49.308;7.336;2023-04-07T09:35:58;8.40;99.90
12289;DHT22;6207;49.308;7.336;2023-04-07T09:38:35;8.50;99.90
12289;DHT22;6207;49.308;7.336;2023-04-07T09:41:09;8.60;99.90
12289;DHT22;6207;49.308;7.336;2023-04-07T09:43:41;8.70;99.90
12289;DHT22;6207;49.308;7.336;2023-04-07T09:46:16;8.80;99.90
12289;DHT22;6207;49.308;7.336;2023-04-07T09:48:44;9.10;99.90
12289;DHT22;6207;49.308;7.336;2023-04-07T09:51:14;9.00;99.90
12289;DHT22;6207;49.308;7.336;2023-04-07T09:56:13;9.00;99.90
12289;DHT22;6207;49.308;7.336;2023-04-07T09:58:43;9.20;99.90
12289;DHT22;6207;49.308;7.336;2023-04-07T10:01:11;9.30;99.90
12289;DHT22;6207;49.308;7.336;2023-04-07T10:03:38;9.10;99.90
12289;DHT22;6207;49.308;7.336;2023-04-07T10:06:06;9.00;99.90
12289;DHT22;6207;49.308;7.336;2023-04-07T10:08:35;9.40;99.90
12289;DHT22;6207;49.308;7.336;2023-04-07T10:11:04;9.40;99.90
12289;DHT22;6207;49.308;7.336;2023-04-07T10:13:34;9.30;99.90
12289;DHT22;6207;49.308;7.336;2023-04-07T10:16:05;9.40;99.90
12289;DHT22;6207;49.308;7.336;2023-04-07T10:18:34;9.40;99.90
12289;DHT22;6207;49.308;7.336;2023-04-07T10:21:03;9.10;99.90
12289;DHT22;6207;49.308;7.336;2023-04-07T10:23:39;9.30;99.90
12289;DHT22;6207;49.308;7.336;2023-04-07T10:26:10;9.20;99.90
12289;DHT22;6207;49.308;7.336;2023-04-07T10:28:39;9.10;99.90
12289;DHT22;6207;49.308;7.336;2023-04-07T10:31:07;9.30;99.90
12289;DHT22;6207;49.308;7.336;2023-04-07T10:33:47;9.10;99.90
12289;DHT22;6207;49.308;7.336;2023-04-07T10:36:19;9.00;99.90
12289;DHT22;6207;49.308;7.336;2023-04-07T10:41:35;8.90;99.90
12289;DHT22;6207;49.308;7.336;2023-04-07T10:44:03;8.90;99.90
12289;DHT22;6207;49.308;7.336;2023-04-07T10:49:26;9.10;99.90
12289;DHT22;6207;49.308;7.336;2023-04-07T10:54:39;9.20;99.90
12289;DHT22;6207;49.308;7.336;2023-04-07T10:59:38;9.60;99.90
12289;DHT22;6207;49.308;7.336;2023-04-07T11:04:39;9.70;99.90
12289;DHT22;6207;49.308;7.336;2023-04-07T11:07:07;10.00;99.90
12289;DHT22;6207;49.308;7.336;2023-04-07T11:09:33;10.10;99.90
12289;DHT22;6207;49.308;7.336;2023-04-07T11:12:00;10.10;99.90
12289;DHT22;6207;49.308;7.336;2023-04-07T11:14:29;10.30;99.90
12289;DHT22;6207;49.308;7.336;2023-04-07T11:16:58;10.30;99.90
12289;DHT22;6207;49.308;7.336;2023-04-07T11:19:26;10.50;99.90
12289;DHT22;6207;49.308;7.336;2023-04-07T11:22:13;10.20;99.90
12289;DHT22;6207;49.308;7.336;2023-04-07T11:24:55;9.70;99.90
12289;DHT22;6207;49.308;7.336;2023-04-07T11:27:22;9.70;99.90
12289;DHT22;6207;49.308;7.336;2023-04-07T11:29:49;9.80;99.90
12289;DHT22;6207;49.308;7.336;2023-04-07T11:32:22;9.60;99.90
12289;DHT22;6207;49.308;7.336;2023-04-07T11:34:51;9.90;99.90
12289;DHT22;6207;49.308;7.336;2023-04-07T11:37:19;9.70;99.90
12289;DHT22;6207;49.308;7.336;2023-04-07T11:39:56;9.90;99.90
12289;DHT22;6207;49.308;7.336;2023-04-07T11:42:34;9.80;99.90
12289;DHT22;6207;49.308;7.336;2023-04-07T11:45:01;10.40;99.90
12289;DHT22;6207;49.308;7.336;2023-04-07T11:47:35;10.70;99.90
12289;DHT22;6207;49.308;7.336;2023-04-07T11:50:02;10.70;99.90
12289;DHT22;6207;49.308;7.336;2023-04-07T11:52:49;11.10;99.90
12289;DHT22;6207;49.308;7.336;2023-04-07T11:57:47;11.20;99.90
12289;DHT22;6207;49.308;7.336;2023-04-07T12:00:16;10.50;99.90
12289;DHT22;6207;49.308;7.336;2023-04-07T12:02:44;10.90;99.90
12289;DHT22;6207;49.308;7.336;2023-04-07T12:05:11;10.80;99.90
12289;DHT22;6207;49.308;7.336;2023-04-07T12:07:39;11.10;99.90
12289;DHT22;6207;49.308;7.336;2023-04-07T12:12:46;10.90;99.90
12289;DHT22;6207;49.308;7.336;2023-04-07T12:15:13;10.70;99.90
12289;DHT22;6207;49.308;7.336;2023-04-07T12:17:49;10.70;99.90
12289;DHT22;6207;49.308;7.336;2023-04-07T12:20:16;10.50;99.90
12289;DHT22;6207;49.308;7.336;2023-04-07T12:22:43;10.60;99.90
12289;DHT22;6207;49.308;7.336;2023-04-07T12:25:09;10.60;99.90
12289;DHT22;6207;49.308;7.336;2023-04-07T12:27:36;10.50;99.90
12289;DHT22;6207;49.308;7.336;2023-04-07T12:30:10;10.80;99.90
12289;DHT22;6207;49.308;7.336;2023-04-07T12:32:37;10.30;99.90
12289;DHT22;6207;49.308;7.336;2023-04-07T12:35:05;10.50;99.90
12289;DHT22;6207;49.308;7.336;2023-04-07T12:37:31;10.90;99.90
12289;DHT22;6207;49.308;7.336;2023-04-07T12:39:58;10.70;99.90
12289;DHT22;6207;49.308;7.336;2023-04-07T12:42:26;10.90;99.90
12289;DHT22;6207;49.308;7.336;2023-04-07T12:44:53;10.90;99.90
12289;DHT22;6207;49.308;7.336;2023-04-07T12:47:20;11.20;99.90
12289;DHT22;6207;49.308;7.336;2023-04-07T12:49:47;11.60;99.90
12289;DHT22;6207;49.308;7.336;2023-04-07T12:52:16;11.30;99.90
12289;DHT22;6207;49.308;7.336;2023-04-07T12:54:42;11.30;99.90
12289;DHT22;6207;49.308;7.336;2023-04-07T12:57:10;11.20;99.90
12289;DHT22;6207;49.308;7.336;2023-04-07T12:59:37;11.00;99.90
12289;DHT22;6207;49.308;7.336;2023-04-07T13:02:03;10.90;99.90
12289;DHT22;6207;49.308;7.336;2023-04-07T13:04:31;10.80;99.90
12289;DHT22;6207;49.308;7.336;2023-04-07T13:06:58;10.60;99.90
12289;DHT22;6207;49.308;7.336;2023-04-07T13:09:25;10.40;99.90
12289;DHT22;6207;49.308;7.336;2023-04-07T13:11:51;10.20;99.90
12289;DHT22;6207;49.308;7.336;2023-04-07T13:14:18;9.70;99.90
12289;DHT22;6207;49.308;7.336;2023-04-07T13:16:45;9.60;99.90
12289;DHT22;6207;49.308;7.336;2023-04-07T13:19:11;9.70;99.90
12289;DHT22;6207;49.308;7.336;2023-04-07T13:21:38;10.00;99.90
12289;DHT22;6207;49.308;7.336;2023-04-07T13:24:08;9.80;99.90
12289;DHT22;6207;49.308;7.336;2023-04-07T13:26:34;9.70;99.90
12289;DHT22;6207;49.308;7.336;2023-04-07T13:29:01;9.60;99.90
12289;DHT22;6207;49.308;7.336;2023-04-07T13:31:28;9.60;99.90
12289;DHT22;6207;49.308;7.336;2023-04-07T13:33:55;9.70;99.90
12289;DHT22;6207;49.308;7.336;2023-04-07T13:36:23;9.70;99.90
12289;DHT22;6207;49.308;7.336;2023-04-07T13:38:50;9.60;99.90
12289;DHT22;6207;49.308;7.336;2023-04-07T13:41:17;9.90;99.90
12289;DHT22;6207;49.308;7.336;2023-04-07T13:43:43;10.10;99.90
12289;DHT22;6207;49.308;7.336;2023-04-07T13:46:14;10.50;99.90
12289;DHT22;6207;49.308;7.336;2023-04-07T13:48:53;10.90;99.90
12289;DHT22;6207;49.308;7.336;2023-04-07T13:51:20;10.40;99.90
12289;DHT22;6207;49.308;7.336;2023-04-07T13:53:47;10.90;99.90
12289;DHT22;6207;49.308;7.336;2023-04-07T13:56:14;10.70;99.90
12289;DHT22;6207;49.308;7.336;2023-04-07T13:58:41;10.80;99.90
12289;DHT22;6207;49.308;7.336;2023-04-07T14:01:07;10.80;99.90
12289;DHT22;6207;49.308;7.336;2023-04-07T14:03:34;10.90;99.90
12289;DHT22;6207;49.308;7.336;2023-04-07T14:06:01;11.10;99.90
12289;DHT22;6207;49.308;7.336;2023-04-07T14:08:28;10.80;99.90
12289;DHT22;6207;49.308;7.336;2023-04-07T14:10:55;10.60;99.90
12289;DHT22;6207;49.308;7.336;2023-04-07T14:13:22;10.80;99.90
12289;DHT22;6207;49.308;7.336;2023-04-07T14:15:49;11.10;99.90
12289;DHT22;6207;49.308;7.336;2023-04-07T14:18:16;11.10;99.90
12289;DHT22;6207;49.308;7.336;2023-04-07T14:20:43;11.40;99.90
12289;DHT22;6207;49.308;7.336;2023-04-07T14:23:10;11.60;99.90
12289;DHT22;6207;49.308;7.336;2023-04-07T14:25:37;11.30;99.90
12289;DHT22;6207;49.308;7.336;2023-04-07T14:28:04;11.40;99.90
12289;DHT22;6207;49.308;7.336;2023-04-07T14:30:30;11.40;99.90
12289;DHT22;6207;49.308;7.336;2023-04-07T14:32:59;11.20;99.90
12289;DHT22;6207;49.308;7.336;2023-04-07T14:35:30;10.90;99.90
12289;DHT22;6207;49.308;7.336;2023-04-07T14:37:56;10.40;99.90
12289;DHT22;6207;49.308;7.336;2023-04-07T14:40:23;10.10;99.90
12289;DHT22;6207;49.308;7.336;2023-04-07T14:42:50;10.40;99.90
12289;DHT22;6207;49.308;7.336;2023-04-07T14:45:20;9.90;99.90
12289;DHT22;6207;49.308;7.336;2023-04-07T14:47:46;9.80;99.90
12289;DHT22;6207;49.308;7.336;2023-04-07T14:50:13;9.90;99.90
12289;DHT22;6207;49.308;7.336;2023-04-07T14:52:40;9.90;99.90
12289;DHT22;6207;49.308;7.336;2023-04-07T14:55:07;10.00;99.90
12289;DHT22;6207;49.308;7.336;2023-04-07T14:57:34;10.20;99.90
12289;DHT22;6207;49.308;7.336;2023-04-07T15:00:02;9.70;99.90
12289;DHT22;6207;49.308;7.336;2023-04-07T15:02:29;9.60;99.90
12289;DHT22;6207;49.308;7.336;2023-04-07T15:04:58;9.60;99.90
12289;DHT22;6207;49.308;7.336;2023-04-07T15:07:25;9.80;99.90
12289;DHT22;6207;49.308;7.336;2023-04-07T15:09:52;9.90;99.90
12289;DHT22;6207;49.308;7.336;2023-04-07T15:12:19;10.00;99.90
12289;DHT22;6207;49.308;7.336;2023-04-07T15:14:49;10.10;99.90
12289;DHT22;6207;49.308;7.336;2023-04-07T15:17:16;10.20;99.90
12289;DHT22;6207;49.308;7.336;2023-04-07T15:19:43;10.10;99.90
12289;DHT22;6207;49.308;7.336;2023-04-07T15:22:12;10.10;99.90
12289;DHT22;6207;49.308;7.336;2023-04-07T15:24:39;10.00;99.90
12289;DHT22;6207;49.308;7.336;2023-04-07T15:27:07;10.30;99.90
12289;DHT22;6207;49.308;7.336;2023-04-07T15:29:34;10.60;99.90
12289;DHT22;6207;49.308;7.336;2023-04-07T15:32:02;10.10;99.90
12289;DHT22;6207;49.308;7.336;2023-04-07T15:34:29;10.10;99.90
12289;DHT22;6207;49.308;7.336;2023-04-07T15:36:56;10.20;99.90
12289;DHT22;6207;49.308;7.336;2023-04-07T15:39:23;10.40;99.90
12289;DHT22;6207;49.308;7.336;2023-04-07T15:41:50;10.50;99.90
12289;DHT22;6207;49.308;7.336;2023-04-07T15:44:17;11.30;99.90
12289;DHT22;6207;49.308;7.336;2023-04-07T15:46:46;10.50;99.90
12289;DHT22;6207;49.308;7.336;2023-04-07T15:49:13;10.50;99.90
12289;DHT22;6207;49.308;7.336;2023-04-07T15:51:45;10.60;99.90
12289;DHT22;6207;49.308;7.336;2023-04-07T15:54:12;10.50;99.90
12289;DHT22;6207;49.308;7.336;2023-04-07T15:56:39;10.20;99.90
12289;DHT22;6207;49.308;7.336;2023-04-07T15:59:05;10.30;99.90
12289;DHT22;6207;49.308;7.336;2023-04-07T16:01:32;10.30;99.90
12289;DHT22;6207;49.308;7.336;2023-04-07T16:03:59;10.60;99.90
12289;DHT22;6207;49.308;7.336;2023-04-07T16:06:26;10.70;99.90
12289;DHT22;6207;49.308;7.336;2023-04-07T16:08:53;10.90;99.90
12289;DHT22;6207;49.308;7.336;2023-04-07T16:11:21;10.80;99.90
12289;DHT22;6207;49.308;7.336;2023-04-07T16:13:48;10.60;99.90
12289;DHT22;6207;49.308;7.336;2023-04-07T16:16:15;10.30;99.90
12289;DHT22;6207;49.308;7.336;2023-04-07T16:18:44;10.40;99.90
12289;DHT22;6207;49.308;7.336;2023-04-07T16:21:11;10.40;99.90
12289;DHT22;6207;49.308;7.336;2023-04-07T16:23:38;10.30;99.90
12289;DHT22;6207;49.308;7.336;2023-04-07T16:26:05;10.30;99.90
12289;DHT22;6207;49.308;7.336;2023-04-07T16:28:32;10.20;99.90
12289;DHT22;6207;49.308;7.336;2023-04-07T16:30:59;10.40;99.90
12289;DHT22;6207;49.308;7.336;2023-04-07T16:33:28;10.40;99.90
12289;DHT22;6207;49.308;7.336;2023-04-07T16:35:54;10.20;99.90